sensor_id;sensor_type;location;lat;lon;timestamp;temperature;humidity
45283;DHT22;31023;44.994;1.796;2024-02-04T00:01:39;5.00;99.90
45283;DHT22;31023;44.994;1.796;2024-02-04T00:04:05;5.10;99.90
45283;DHT22;31023;44.994;1.796;2024-02-04T00:06:31;5.20;99.90
45283;DHT22;31023;44.994;1.796;2024-02-04T00:08:57;5.10;99.90
45283;DHT22;31023;44.994;1.796;2024-02-04T00:11:23;5.10;99.90
45283;DHT22;31023;44.994;1.796;2024-02-04T00:13:49;5.10;99.90
45283;DHT22;31023;44.994;1.796;2024-02-04T00:16:14;5.10;99.90
45283;DHT22;31023;44.994;1.796;2024-02-04T00:18:40;5.20;99.90
45283;DHT22;31023;44.994;1.796;2024-02-04T00:21:06;5.10;99.90
45283;DHT22;31023;44.994;1.796;2024-02-04T00:23:32;5.00;99.90
45283;DHT22;31023;44.994;1.796;2024-02-04T00:25:57;5.00;99.90
45283;DHT22;31023;44.994;1.796;2024-02-04T00:28:23;4.90;99.90
45283;DHT22;31023;44.994;1.796;2024-02-04T00:30:49;4.80;99.90
45283;DHT22;31023;44.994;1.796;2024-02-04T00:33:15;4.80;99.90
45283;DHT22;31023;44.994;1.796;2024-02-04T00:35:41;4.80;99.90
45283;DHT22;31023;44.994;1.796;2024-02-04T00:38:07;4.80;99.90
45283;DHT22;31023;44.994;1.796;2024-02-04T00:40:34;4.80;99.90
45283;DHT22;31023;44.994;1.796;2024-02-04T00:43:00;4.80;99.90
45283;DHT22;31023;44.994;1.796;2024-02-04T00:45:26;4.90;99.90
45283;DHT22;31023;44.994;1.796;2024-02-04T00:47:52;4.80;99.90
45283;DHT22;31023;44.994;1.796;2024-02-04T00:50:17;4.80;99.90
45283;DHT22;31023;44.994;1.796;2024-02-04T00:52:43;4.80;99.90
45283;DHT22;31023;44.994;1.796;2024-02-04T00:55:09;5.00;99.90
45283;DHT22;31023;44.994;1.796;2024-02-04T00:57:34;5.00;99.90
45283;DHT22;31023;44.994;1.796;2024-02-04T01:00:00;5.00;99.90
45283;DHT22;31023;44.994;1.796;2024-02-04T01:02:26;5.00;99.90
45283;DHT22;31023;44.994;1.796;2024-02-04T01:04:52;5.00;99.90
45283;DHT22;31023;44.994;1.796;2024-02-04T01:07:18;5.00;99.90
45283;DHT22;31023;44.994;1.796;2024-02-04T01:09:44;5.00;99.90
45283;DHT22;31023;44.994;1.796;2024-02-04T01:12:09;5.10;99.90
45283;DHT22;31023;44.994;1.796;2024-02-04T01:14:35;4.80;99.90
45283;DHT22;31023;44.994;1.796;2024-02-04T01:17:01;4.90;99.90
45283;DHT22;31023;44.994;1.796;2024-02-04T01:19:26;5.10;99.90
45283;DHT22;31023;44.994;1.796;2024-02-04T01:21:52;5.10;99.90
45283;DHT22;31023;44.994;1.796;2024-02-04T01:24:17;5.00;99.90
45283;DHT22;31023;44.994;1.796;2024-02-04T01:26:43;4.80;99.90
45283;DHT22;31023;44.994;1.796;2024-02-04T01:29:09;4.80;99.90
45283;DHT22;31023;44.994;1.796;2024-02-04T01:31:34;4.90;99.90
45283;DHT22;31023;44.994;1.796;2024-02-04T01:34:00;5.00;99.90
45283;DHT22;31023;44.994;1.796;2024-02-04T01:36:26;4.80;99.90
45283;DHT22;31023;44.994;1.796;2024-02-04T01:38:51;4.70;99.90
45283;DHT22;31023;44.994;1.796;2024-02-04T01:41:17;4.90;99.90
45283;DHT22;31023;44.994;1.796;2024-02-04T01:43:43;4.90;99.90
45283;DHT22;31023;44.994;1.796;2024-02-04T01:46:09;4.90;99.90
45283;DHT22;31023;44.994;1.796;2024-02-04T01:48:36;5.00;99.90
45283;DHT22;31023;44.994;1.796;2024-02-04T01:51:02;4.90;99.90
45283;DHT22;31023;44.994;1.796;2024-02-04T01:53:29;4.80;99.90
45283;DHT22;31023;44.994;1.796;2024-02-04T01:55:57;4.80;99.90
45283;DHT22;31023;44.994;1.796;2024-02-04T01:58:24;4.60;99.90
45283;DHT22;31023;44.994;1.796;2024-02-04T02:00:50;4.50;99.90
45283;DHT22;31023;44.994;1.796;2024-02-04T02:03:16;4.30;99.90
45283;DHT22;31023;44.994;1.796;2024-02-04T02:05:42;4.20;99.90
45283;DHT22;31023;44.994;1.796;2024-02-04T02:08:08;4.40;99.90
45283;DHT22;31023;44.994;1.796;2024-02-04T02:10:34;4.50;99.90
45283;DHT22;31023;44.994;1.796;2024-02-04T02:13:23;4.70;99.90
45283;DHT22;31023;44.994;1.796;2024-02-04T02:15:54;4.60;99.90
45283;DHT22;31023;44.994;1.796;2024-02-04T02:18:37;4.60;99.90
45283;DHT22;31023;44.994;1.796;2024-02-04T02:24:26;4.40;99.90
45283;DHT22;31023;44.994;1.796;2024-02-04T02:26:52;4.50;99.90
45283;DHT22;31023;44.994;1.796;2024-02-04T02:29:18;4.60;99.90
45283;DHT22;31023;44.994;1.796;2024-02-04T02:31:45;4.40;99.90
45283;DHT22;31023;44.994;1.796;2024-02-04T02:34:11;4.40;99.90
45283;DHT22;31023;44.994;1.796;2024-02-04T02:36:44;4.40;99.90
45283;DHT22;31023;44.994;1.796;2024-02-04T02:39:18;4.50;99.90
45283;DHT22;31023;44.994;1.796;2024-02-04T02:41:51;4.40;99.90
45283;DHT22;31023;44.994;1.796;2024-02-04T02:44:20;4.40;99.90
45283;DHT22;31023;44.994;1.796;2024-02-04T02:46:47;4.30;99.90
45283;DHT22;31023;44.994;1.796;2024-02-04T02:49:13;4.30;99.90
45283;DHT22;31023;44.994;1.796;2024-02-04T02:51:39;4.40;99.90
45283;DHT22;31023;44.994;1.796;2024-02-04T02:54:05;4.40;99.90
45283;DHT22;31023;44.994;1.796;2024-02-04T02:56:30;4.40;99.90
45283;DHT22;31023;44.994;1.796;2024-02-04T02:58:56;4.30;99.90
45283;DHT22;31023;44.994;1.796;2024-02-04T03:01:21;4.00;99.90
45283;DHT22;31023;44.994;1.796;2024-02-04T03:03:49;3.80;99.90
45283;DHT22;31023;44.994;1.796;2024-02-04T03:06:14;3.90;99.90
45283;DHT22;31023;44.994;1.796;2024-02-04T03:08:40;4.00;99.90
45283;DHT22;31023;44.994;1.796;2024-02-04T03:11:06;4.40;99.90
45283;DHT22;31023;44.994;1.796;2024-02-04T03:13:31;4.50;99.90
45283;DHT22;31023;44.994;1.796;2024-02-04T03:15:57;4.30;99.90
45283;DHT22;31023;44.994;1.796;2024-02-04T03:18:23;4.30;99.90
45283;DHT22;31023;44.994;1.796;2024-02-04T03:20:48;4.30;99.90
45283;DHT22;31023;44.994;1.796;2024-02-04T03:23:14;4.10;99.90
45283;DHT22;31023;44.994;1.796;2024-02-04T03:25:40;4.30;99.90
45283;DHT22;31023;44.994;1.796;2024-02-04T03:28:06;4.10;99.90
45283;DHT22;31023;44.994;1.796;2024-02-04T03:30:31;4.30;99.90
45283;DHT22;31023;44.994;1.796;2024-02-04T03:32:57;4.50;99.90
45283;DHT22;31023;44.994;1.796;2024-02-04T03:35:22;4.50;99.90
45283;DHT22;31023;44.994;1.796;2024-02-04T03:37:48;4.40;99.90
45283;DHT22;31023;44.994;1.796;2024-02-04T03:40:14;4.20;99.90
45283;DHT22;31023;44.994;1.796;2024-02-04T03:42:39;4.00;99.90
45283;DHT22;31023;44.994;1.796;2024-02-04T03:45:06;4.00;99.90
45283;DHT22;31023;44.994;1.796;2024-02-04T03:47:32;4.20;99.90
45283;DHT22;31023;44.994;1.796;2024-02-04T03:49:57;4.20;99.90
45283;DHT22;31023;44.994;1.796;2024-02-04T03:52:23;4.30;99.90
45283;DHT22;31023;44.994;1.796;2024-02-04T03:54:49;4.30;99.90
45283;DHT22;31023;44.994;1.796;2024-02-04T03:57:14;4.30;99.90
45283;DHT22;31023;44.994;1.796;2024-02-04T03:59:40;4.30;99.90
45283;DHT22;31023;44.994;1.796;2024-02-04T04:02:05;4.00;99.90
45283;DHT22;31023;44.994;1.796;2024-02-04T04:04:31;4.00;99.90
45283;DHT22;31023;44.994;1.796;2024-02-04T04:06:58;4.20;99.90
45283;DHT22;31023;44.994;1.796;2024-02-04T04:09:23;4.10;99.90
45283;DHT22;31023;44.994;1.796;2024-02-04T04:11:49;4.10;99.90
45283;DHT22;31023;44.994;1.796;2024-02-04T04:14:15;4.00;99.90
45283;DHT22;31023;44.994;1.796;2024-02-04T04:16:40;4.10;99.90
45283;DHT22;31023;44.994;1.796;2024-02-04T04:19:06;3.90;99.90
45283;DHT22;31023;44.994;1.796;2024-02-04T04:21:32;4.00;99.90
45283;DHT22;31023;44.994;1.796;2024-02-04T04:23:58;4.20;99.90
45283;DHT22;31023;44.994;1.796;2024-02-04T04:26:23;3.80;99.90
45283;DHT22;31023;44.994;1.796;2024-02-04T04:28:49;3.70;99.90
45283;DHT22;31023;44.994;1.796;2024-02-04T04:31:15;3.70;99.90
45283;DHT22;31023;44.994;1.796;2024-02-04T04:33:41;3.80;99.90
45283;DHT22;31023;44.994;1.796;2024-02-04T04:36:06;4.00;99.90
45283;DHT22;31023;44.994;1.796;2024-02-04T04:38:32;4.20;99.90
45283;DHT22;31023;44.994;1.796;2024-02-04T04:40:58;4.20;99.90
45283;DHT22;31023;44.994;1.796;2024-02-04T04:43:24;4.10;99.90
45283;DHT22;31023;44.994;1.796;2024-02-04T04:45:49;3.90;99.90
45283;DHT22;31023;44.994;1.796;2024-02-04T04:48:15;3.90;99.90
45283;DHT22;31023;44.994;1.796;2024-02-04T04:50:41;3.90;99.90
45283;DHT22;31023;44.994;1.796;2024-02-04T04:53:07;4.10;99.90
45283;DHT22;31023;44.994;1.796;2024-02-04T04:55:32;4.10;99.90
45283;DHT22;31023;44.994;1.796;2024-02-04T04:57:58;3.80;99.90
45283;DHT22;31023;44.994;1.796;2024-02-04T05:00:23;3.60;99.90
45283;DHT22;31023;44.994;1.796;2024-02-04T05:02:58;3.70;99.90
45283;DHT22;31023;44.994;1.796;2024-02-04T05:05:24;3.80;99.90
45283;DHT22;31023;44.994;1.796;2024-02-04T05:07:50;3.70;99.90
45283;DHT22;31023;44.994;1.796;2024-02-04T05:10:15;3.60;99.90
45283;DHT22;31023;44.994;1.796;2024-02-04T05:12:41;3.70;99.90
45283;DHT22;31023;44.994;1.796;2024-02-04T05:15:07;3.80;99.90
45283;DHT22;31023;44.994;1.796;2024-02-04T05:17:33;4.00;99.90
45283;DHT22;31023;44.994;1.796;2024-02-04T05:19:59;3.80;99.90
45283;DHT22;31023;44.994;1.796;2024-02-04T05:22:24;4.00;99.90
45283;DHT22;31023;44.994;1.796;2024-02-04T05:24:50;4.00;99.90
45283;DHT22;31023;44.994;1.796;2024-02-04T05:27:16;4.00;99.90
45283;DHT22;31023;44.994;1.796;2024-02-04T05:29:42;4.00;99.90
45283;DHT22;31023;44.994;1.796;2024-02-04T05:32:07;4.10;99.90
45283;DHT22;31023;44.994;1.796;2024-02-04T05:34:33;3.90;99.90
45283;DHT22;31023;44.994;1.796;2024-02-04T05:37:00;4.00;99.90
45283;DHT22;31023;44.994;1.796;2024-02-04T05:39:25;3.90;99.90
45283;DHT22;31023;44.994;1.796;2024-02-04T05:41:51;3.80;99.90
45283;DHT22;31023;44.994;1.796;2024-02-04T05:44:17;3.70;99.90
45283;DHT22;31023;44.994;1.796;2024-02-04T05:46:42;3.80;99.90
45283;DHT22;31023;44.994;1.796;2024-02-04T05:49:08;3.60;99.90
45283;DHT22;31023;44.994;1.796;2024-02-04T05:51:38;3.70;99.90
45283;DHT22;31023;44.994;1.796;2024-02-04T05:54:05;3.60;99.90
45283;DHT22;31023;44.994;1.796;2024-02-04T05:56:30;3.60;99.90
45283;DHT22;31023;44.994;1.796;2024-02-04T05:58:56;3.40;99.90
45283;DHT22;31023;44.994;1.796;2024-02-04T06:01:22;3.70;99.90
45283;DHT22;31023;44.994;1.796;2024-02-04T06:03:47;3.70;99.90
45283;DHT22;31023;44.994;1.796;2024-02-04T06:06:17;3.60;99.90
45283;DHT22;31023;44.994;1.796;2024-02-04T06:08:45;3.80;99.90
45283;DHT22;31023;44.994;1.796;2024-02-04T06:11:15;3.40;99.90
45283;DHT22;31023;44.994;1.796;2024-02-04T06:13:41;3.60;99.90
45283;DHT22;31023;44.994;1.796;2024-02-04T06:16:07;3.60;99.90
45283;DHT22;31023;44.994;1.796;2024-02-04T06:18:34;3.70;99.90
45283;DHT22;31023;44.994;1.796;2024-02-04T06:21:00;3.70;99.90
45283;DHT22;31023;44.994;1.796;2024-02-04T06:23:26;3.40;99.90
45283;DHT22;31023;44.994;1.796;2024-02-04T06:25:51;3.30;99.90
45283;DHT22;31023;44.994;1.796;2024-02-04T06:28:17;3.40;99.90
45283;DHT22;31023;44.994;1.796;2024-02-04T06:30:43;3.40;99.90
45283;DHT22;31023;44.994;1.796;2024-02-04T06:33:08;3.40;99.90
45283;DHT22;31023;44.994;1.796;2024-02-04T06:35:34;3.40;99.90
45283;DHT22;31023;44.994;1.796;2024-02-04T06:37:59;3.50;99.90
45283;DHT22;31023;44.994;1.796;2024-02-04T06:40:25;3.70;99.90
45283;DHT22;31023;44.994;1.796;2024-02-04T06:42:51;3.50;99.90
45283;DHT22;31023;44.994;1.796;2024-02-04T06:45:16;3.40;99.90
45283;DHT22;31023;44.994;1.796;2024-02-04T06:47:45;3.10;99.90
45283;DHT22;31023;44.994;1.796;2024-02-04T06:50:11;3.10;99.90
45283;DHT22;31023;44.994;1.796;2024-02-04T06:52:41;3.00;99.90
45283;DHT22;31023;44.994;1.796;2024-02-04T06:55:08;3.20;99.90
45283;DHT22;31023;44.994;1.796;2024-02-04T06:57:34;3.30;99.90
45283;DHT22;31023;44.994;1.796;2024-02-04T06:59:59;3.30;99.90
45283;DHT22;31023;44.994;1.796;2024-02-04T07:02:25;3.40;99.90
45283;DHT22;31023;44.994;1.796;2024-02-04T07:04:51;3.30;99.90
45283;DHT22;31023;44.994;1.796;2024-02-04T07:07:16;3.40;99.90
45283;DHT22;31023;44.994;1.796;2024-02-04T07:09:42;3.40;99.90
45283;DHT22;31023;44.994;1.796;2024-02-04T07:12:08;3.30;99.90
45283;DHT22;31023;44.994;1.796;2024-02-04T07:14:33;3.30;99.90
45283;DHT22;31023;44.994;1.796;2024-02-04T07:16:59;3.30;99.90
45283;DHT22;31023;44.994;1.796;2024-02-04T07:19:25;3.20;99.90
45283;DHT22;31023;44.994;1.796;2024-02-04T07:21:50;3.40;99.90
45283;DHT22;31023;44.994;1.796;2024-02-04T07:24:16;3.50;99.90
45283;DHT22;31023;44.994;1.796;2024-02-04T07:26:41;3.50;99.90
45283;DHT22;31023;44.994;1.796;2024-02-04T07:29:07;3.40;99.90
45283;DHT22;31023;44.994;1.796;2024-02-04T07:31:33;3.40;99.90
45283;DHT22;31023;44.994;1.796;2024-02-04T07:34:03;3.30;99.90
45283;DHT22;31023;44.994;1.796;2024-02-04T07:36:28;3.30;99.90
45283;DHT22;31023;44.994;1.796;2024-02-04T07:38:54;3.20;99.90
45283;DHT22;31023;44.994;1.796;2024-02-04T07:41:20;3.30;99.90
45283;DHT22;31023;44.994;1.796;2024-02-04T07:43:45;3.20;99.90
45283;DHT22;31023;44.994;1.796;2024-02-04T07:46:11;3.10;99.90
45283;DHT22;31023;44.994;1.796;2024-02-04T07:48:37;2.90;99.90
45283;DHT22;31023;44.994;1.796;2024-02-04T07:51:02;3.10;99.90
45283;DHT22;31023;44.994;1.796;2024-02-04T07:53:28;3.10;99.90
45283;DHT22;31023;44.994;1.796;2024-02-04T07:55:54;3.00;99.90
45283;DHT22;31023;44.994;1.796;2024-02-04T07:58:21;3.00;99.90
45283;DHT22;31023;44.994;1.796;2024-02-04T08:00:46;3.00;99.90
45283;DHT22;31023;44.994;1.796;2024-02-04T08:03:12;3.10;99.90
45283;DHT22;31023;44.994;1.796;2024-02-04T08:05:38;3.20;99.90
45283;DHT22;31023;44.994;1.796;2024-02-04T08:08:04;3.20;99.90
45283;DHT22;31023;44.994;1.796;2024-02-04T08:10:30;3.00;99.90
45283;DHT22;31023;44.994;1.796;2024-02-04T08:12:56;3.00;99.90
45283;DHT22;31023;44.994;1.796;2024-02-04T08:15:22;3.20;99.90
45283;DHT22;31023;44.994;1.796;2024-02-04T08:17:47;3.00;99.90
45283;DHT22;31023;44.994;1.796;2024-02-04T08:20:13;3.30;99.90
45283;DHT22;31023;44.994;1.796;2024-02-04T08:22:39;3.70;99.90
45283;DHT22;31023;44.994;1.796;2024-02-04T08:25:05;3.60;99.90
45283;DHT22;31023;44.994;1.796;2024-02-04T08:27:31;3.70;99.90
45283;DHT22;31023;44.994;1.796;2024-02-04T08:29:57;4.10;99.90
45283;DHT22;31023;44.994;1.796;2024-02-04T08:32:23;3.90;99.90
45283;DHT22;31023;44.994;1.796;2024-02-04T08:34:48;3.90;99.90
45283;DHT22;31023;44.994;1.796;2024-02-04T08:37:14;3.60;99.90
45283;DHT22;31023;44.994;1.796;2024-02-04T08:39:40;3.80;99.90
45283;DHT22;31023;44.994;1.796;2024-02-04T08:42:05;3.90;99.90
45283;DHT22;31023;44.994;1.796;2024-02-04T08:44:31;4.00;99.90
45283;DHT22;31023;44.994;1.796;2024-02-04T08:46:57;3.80;99.90
45283;DHT22;31023;44.994;1.796;2024-02-04T08:49:23;3.90;99.90
45283;DHT22;31023;44.994;1.796;2024-02-04T08:51:49;3.90;99.90
45283;DHT22;31023;44.994;1.796;2024-02-04T08:54:14;3.60;99.90
45283;DHT22;31023;44.994;1.796;2024-02-04T08:56:40;3.60;99.90
45283;DHT22;31023;44.994;1.796;2024-02-04T08:59:06;3.60;99.90
45283;DHT22;31023;44.994;1.796;2024-02-04T09:01:32;3.60;99.90
45283;DHT22;31023;44.994;1.796;2024-02-04T09:03:57;3.60;99.90
45283;DHT22;31023;44.994;1.796;2024-02-04T09:06:23;3.70;99.90
45283;DHT22;31023;44.994;1.796;2024-02-04T09:08:49;3.80;99.90
45283;DHT22;31023;44.994;1.796;2024-02-04T09:11:15;4.10;99.90
45283;DHT22;31023;44.994;1.796;2024-02-04T09:13:45;4.10;99.90
45283;DHT22;31023;44.994;1.796;2024-02-04T09:16:10;4.40;99.90
45283;DHT22;31023;44.994;1.796;2024-02-04T09:18:36;4.40;99.90
45283;DHT22;31023;44.994;1.796;2024-02-04T09:21:02;4.40;99.90
45283;DHT22;31023;44.994;1.796;2024-02-04T09:23:28;4.60;99.90
45283;DHT22;31023;44.994;1.796;2024-02-04T09:25:54;5.00;99.90
45283;DHT22;31023;44.994;1.796;2024-02-04T09:28:20;4.90;99.90
45283;DHT22;31023;44.994;1.796;2024-02-04T09:30:45;4.70;99.90
45283;DHT22;31023;44.994;1.796;2024-02-04T09:33:13;4.80;99.90
45283;DHT22;31023;44.994;1.796;2024-02-04T09:35:39;4.80;99.90
45283;DHT22;31023;44.994;1.796;2024-02-04T09:38:06;5.40;99.90
45283;DHT22;31023;44.994;1.796;2024-02-04T09:40:31;5.80;99.90
45283;DHT22;31023;44.994;1.796;2024-02-04T09:42:58;6.30;99.90
45283;DHT22;31023;44.994;1.796;2024-02-04T09:45:24;6.30;99.90
45283;DHT22;31023;44.994;1.796;2024-02-04T09:47:51;6.00;99.90
45283;DHT22;31023;44.994;1.796;2024-02-04T09:50:20;5.40;99.90
45283;DHT22;31023;44.994;1.796;2024-02-04T09:52:49;5.10;99.90
45283;DHT22;31023;44.994;1.796;2024-02-04T09:55:16;4.90;99.90
45283;DHT22;31023;44.994;1.796;2024-02-04T09:57:44;5.10;99.90
45283;DHT22;31023;44.994;1.796;2024-02-04T10:00:10;4.90;99.90
45283;DHT22;31023;44.994;1.796;2024-02-04T10:02:37;5.00;99.90
45283;DHT22;31023;44.994;1.796;2024-02-04T10:05:03;5.10;99.90
45283;DHT22;31023;44.994;1.796;2024-02-04T10:07:29;5.40;99.90
45283;DHT22;31023;44.994;1.796;2024-02-04T10:09:55;5.70;99.90
45283;DHT22;31023;44.994;1.796;2024-02-04T10:12:21;5.60;99.90
45283;DHT22;31023;44.994;1.796;2024-02-04T10:14:49;5.90;99.90
45283;DHT22;31023;44.994;1.796;2024-02-04T10:17:18;6.20;99.90
45283;DHT22;31023;44.994;1.796;2024-02-04T10:19:47;6.70;99.90
45283;DHT22;31023;44.994;1.796;2024-02-04T10:22:13;7.60;99.90
45283;DHT22;31023;44.994;1.796;2024-02-04T10:24:39;8.30;99.90
45283;DHT22;31023;44.994;1.796;2024-02-04T10:27:05;8.70;99.90
45283;DHT22;31023;44.994;1.796;2024-02-04T10:29:31;8.50;99.10
45283;DHT22;31023;44.994;1.796;2024-02-04T10:31:57;8.60;99.60
45283;DHT22;31023;44.994;1.796;2024-02-04T10:34:26;8.50;99.60
45283;DHT22;31023;44.994;1.796;2024-02-04T10:36:53;8.40;99.90
45283;DHT22;31023;44.994;1.796;2024-02-04T10:39:19;7.90;99.90
45283;DHT22;31023;44.994;1.796;2024-02-04T10:41:52;7.60;99.90
45283;DHT22;31023;44.994;1.796;2024-02-04T10:44:21;7.70;99.90
45283;DHT22;31023;44.994;1.796;2024-02-04T10:46:47;8.10;99.90
45283;DHT22;31023;44.994;1.796;2024-02-04T10:49:14;7.80;99.90
45283;DHT22;31023;44.994;1.796;2024-02-04T10:51:42;7.80;99.90
45283;DHT22;31023;44.994;1.796;2024-02-04T10:54:07;8.10;99.90
45283;DHT22;31023;44.994;1.796;2024-02-04T10:56:40;7.90;99.90
45283;DHT22;31023;44.994;1.796;2024-02-04T10:59:07;7.50;99.90
45283;DHT22;31023;44.994;1.796;2024-02-04T11:01:35;7.50;99.90
45283;DHT22;31023;44.994;1.796;2024-02-04T11:04:01;7.90;99.90
45283;DHT22;31023;44.994;1.796;2024-02-04T11:06:28;8.20;99.90
45283;DHT22;31023;44.994;1.796;2024-02-04T11:08:55;8.30;99.90
45283;DHT22;31023;44.994;1.796;2024-02-04T11:11:23;8.20;99.90
45283;DHT22;31023;44.994;1.796;2024-02-04T11:13:51;8.50;99.90
45283;DHT22;31023;44.994;1.796;2024-02-04T11:16:25;8.50;99.90
45283;DHT22;31023;44.994;1.796;2024-02-04T11:27:48;7.40;99.90
45283;DHT22;31023;44.994;1.796;2024-02-04T11:30:15;7.50;99.90
45283;DHT22;31023;44.994;1.796;2024-02-04T11:32:41;7.50;99.90
45283;DHT22;31023;44.994;1.796;2024-02-04T11:35:07;7.40;99.90
45283;DHT22;31023;44.994;1.796;2024-02-04T11:37:34;7.40;99.90
45283;DHT22;31023;44.994;1.796;2024-02-04T11:39:59;7.50;99.90
45283;DHT22;31023;44.994;1.796;2024-02-04T11:42:31;7.60;99.90
45283;DHT22;31023;44.994;1.796;2024-02-04T11:45:07;7.60;99.90
45283;DHT22;31023;44.994;1.796;2024-02-04T11:47:34;8.00;99.90
45283;DHT22;31023;44.994;1.796;2024-02-04T11:50:00;8.00;99.90
45283;DHT22;31023;44.994;1.796;2024-02-04T11:52:28;8.20;99.90
45283;DHT22;31023;44.994;1.796;2024-02-04T11:54:53;8.60;99.90
45283;DHT22;31023;44.994;1.796;2024-02-04T11:57:20;8.70;99.90
45283;DHT22;31023;44.994;1.796;2024-02-04T11:59:47;8.80;99.90
45283;DHT22;31023;44.994;1.796;2024-02-04T12:02:15;8.90;99.90
45283;DHT22;31023;44.994;1.796;2024-02-04T12:04:41;9.10;99.90
45283;DHT22;31023;44.994;1.796;2024-02-04T12:07:08;9.30;99.90
45283;DHT22;31023;44.994;1.796;2024-02-04T12:09:35;9.50;99.90
45283;DHT22;31023;44.994;1.796;2024-02-04T12:12:02;9.20;99.90
45283;DHT22;31023;44.994;1.796;2024-02-04T12:14:29;9.10;99.90
45283;DHT22;31023;44.994;1.796;2024-02-04T12:16:58;8.90;99.90
45283;DHT22;31023;44.994;1.796;2024-02-04T12:19:24;8.70;99.90
45283;DHT22;31023;44.994;1.796;2024-02-04T12:21:50;8.40;99.90
45283;DHT22;31023;44.994;1.796;2024-02-04T12:24:16;8.20;99.90
45283;DHT22;31023;44.994;1.796;2024-02-04T12:26:42;8.20;99.90
45283;DHT22;31023;44.994;1.796;2024-02-04T12:29:10;8.30;99.90
45283;DHT22;31023;44.994;1.796;2024-02-04T12:31:37;8.30;99.90
45283;DHT22;31023;44.994;1.796;2024-02-04T12:34:03;8.40;99.90
45283;DHT22;31023;44.994;1.796;2024-02-04T12:36:30;8.10;99.90
45283;DHT22;31023;44.994;1.796;2024-02-04T12:39:00;8.00;99.90
45283;DHT22;31023;44.994;1.796;2024-02-04T12:41:27;7.90;99.90
45283;DHT22;31023;44.994;1.796;2024-02-04T12:43:58;7.80;99.90
45283;DHT22;31023;44.994;1.796;2024-02-04T12:46:24;7.90;99.90
45283;DHT22;31023;44.994;1.796;2024-02-04T12:48:57;7.80;99.90
45283;DHT22;31023;44.994;1.796;2024-02-04T12:53:50;7.70;99.90
45283;DHT22;31023;44.994;1.796;2024-02-04T12:56:16;7.70;99.90
45283;DHT22;31023;44.994;1.796;2024-02-04T12:58:42;7.60;99.90
45283;DHT22;31023;44.994;1.796;2024-02-04T13:01:08;7.60;99.90
45283;DHT22;31023;44.994;1.796;2024-02-04T13:03:34;7.50;99.90
45283;DHT22;31023;44.994;1.796;2024-02-04T13:06:00;7.60;99.90
45283;DHT22;31023;44.994;1.796;2024-02-04T13:08:26;7.50;99.90
45283;DHT22;31023;44.994;1.796;2024-02-04T13:10:56;7.50;99.90
45283;DHT22;31023;44.994;1.796;2024-02-04T13:13:22;7.50;99.90
45283;DHT22;31023;44.994;1.796;2024-02-04T13:15:52;7.60;99.90
45283;DHT22;31023;44.994;1.796;2024-02-04T13:18:18;7.60;99.90
45283;DHT22;31023;44.994;1.796;2024-02-04T13:20:43;7.70;99.90
45283;DHT22;31023;44.994;1.796;2024-02-04T13:23:11;7.60;99.90
45283;DHT22;31023;44.994;1.796;2024-02-04T13:25:37;7.60;99.90
45283;DHT22;31023;44.994;1.796;2024-02-04T13:28:03;7.50;99.90
45283;DHT22;31023;44.994;1.796;2024-02-04T13:30:30;7.60;99.90
45283;DHT22;31023;44.994;1.796;2024-02-04T13:32:56;7.60;99.90
45283;DHT22;31023;44.994;1.796;2024-02-04T13:35:23;7.70;99.90
45283;DHT22;31023;44.994;1.796;2024-02-04T13:37:49;7.70;99.90
45283;DHT22;31023;44.994;1.796;2024-02-04T13:40:18;7.70;99.90
45283;DHT22;31023;44.994;1.796;2024-02-04T13:42:45;7.70;99.90
45283;DHT22;31023;44.994;1.796;2024-02-04T13:45:12;7.50;99.90
45283;DHT22;31023;44.994;1.796;2024-02-04T13:47:41;7.50;99.90
45283;DHT22;31023;44.994;1.796;2024-02-04T13:50:08;7.60;99.90
45283;DHT22;31023;44.994;1.796;2024-02-04T13:52:35;7.70;99.90
45283;DHT22;31023;44.994;1.796;2024-02-04T13:55:01;7.60;99.90
45283;DHT22;31023;44.994;1.796;2024-02-04T13:57:27;7.60;99.90
45283;DHT22;31023;44.994;1.796;2024-02-04T13:59:54;7.50;99.90
45283;DHT22;31023;44.994;1.796;2024-02-04T14:02:19;7.50;99.90
45283;DHT22;31023;44.994;1.796;2024-02-04T14:04:45;7.50;99.90
45283;DHT22;31023;44.994;1.796;2024-02-04T14:07:12;7.40;99.90
45283;DHT22;31023;44.994;1.796;2024-02-04T14:09:37;7.40;99.90
45283;DHT22;31023;44.994;1.796;2024-02-04T14:12:03;7.40;99.90
45283;DHT22;31023;44.994;1.796;2024-02-04T14:14:29;7.20;99.90
45283;DHT22;31023;44.994;1.796;2024-02-04T14:16:55;7.20;99.90
45283;DHT22;31023;44.994;1.796;2024-02-04T14:19:21;7.20;99.90
45283;DHT22;31023;44.994;1.796;2024-02-04T14:21:47;7.20;99.90
45283;DHT22;31023;44.994;1.796;2024-02-04T14:24:13;7.10;99.90
45283;DHT22;31023;44.994;1.796;2024-02-04T14:26:38;7.10;99.90
45283;DHT22;31023;44.994;1.796;2024-02-04T14:29:04;7.00;99.90
45283;DHT22;31023;44.994;1.796;2024-02-04T14:31:30;6.90;99.90
45283;DHT22;31023;44.994;1.796;2024-02-04T14:33:55;7.00;99.90
45283;DHT22;31023;44.994;1.796;2024-02-04T14:36:21;6.90;99.90
45283;DHT22;31023;44.994;1.796;2024-02-04T14:38:47;6.80;99.90
45283;DHT22;31023;44.994;1.796;2024-02-04T14:41:13;6.80;99.90
45283;DHT22;31023;44.994;1.796;2024-02-04T14:43:38;6.80;99.90
45283;DHT22;31023;44.994;1.796;2024-02-04T14:46:04;6.80;99.90
45283;DHT22;31023;44.994;1.796;2024-02-04T14:48:30;6.70;99.90
45283;DHT22;31023;44.994;1.796;2024-02-04T14:50:56;6.70;99.90
45283;DHT22;31023;44.994;1.796;2024-02-04T14:53:25;6.70;99.90
45283;DHT22;31023;44.994;1.796;2024-02-04T14:55:50;6.70;99.90
45283;DHT22;31023;44.994;1.796;2024-02-04T14:58:16;6.70;99.90
45283;DHT22;31023;44.994;1.796;2024-02-04T15:00:41;6.70;99.90
45283;DHT22;31023;44.994;1.796;2024-02-04T15:03:07;6.70;99.90
45283;DHT22;31023;44.994;1.796;2024-02-04T15:05:34;6.70;99.90
45283;DHT22;31023;44.994;1.796;2024-02-04T15:08:00;6.80;99.90
45283;DHT22;31023;44.994;1.796;2024-02-04T15:10:26;6.60;99.90
45283;DHT22;31023;44.994;1.796;2024-02-04T15:12:51;6.70;99.90
45283;DHT22;31023;44.994;1.796;2024-02-04T15:15:19;6.60;99.90
45283;DHT22;31023;44.994;1.796;2024-02-04T15:17:45;6.60;99.90
45283;DHT22;31023;44.994;1.796;2024-02-04T15:20:11;6.50;99.90
45283;DHT22;31023;44.994;1.796;2024-02-04T15:22:39;6.50;99.90
45283;DHT22;31023;44.994;1.796;2024-02-04T15:25:06;6.50;99.90
45283;DHT22;31023;44.994;1.796;2024-02-04T15:27:32;6.50;99.90
45283;DHT22;31023;44.994;1.796;2024-02-04T15:29:59;6.50;99.90
45283;DHT22;31023;44.994;1.796;2024-02-04T15:32:25;6.40;99.90
45283;DHT22;31023;44.994;1.796;2024-02-04T15:34:51;6.40;99.90
45283;DHT22;31023;44.994;1.796;2024-02-04T15:37:17;6.30;99.90
45283;DHT22;31023;44.994;1.796;2024-02-04T15:39:44;6.30;99.90
45283;DHT22;31023;44.994;1.796;2024-02-04T15:42:10;6.20;99.90
45283;DHT22;31023;44.994;1.796;2024-02-04T15:44:35;6.20;99.90
45283;DHT22;31023;44.994;1.796;2024-02-04T15:47:05;6.00;99.90
45283;DHT22;31023;44.994;1.796;2024-02-04T15:49:33;6.00;99.90
45283;DHT22;31023;44.994;1.796;2024-02-04T15:52:00;5.90;99.90
45283;DHT22;31023;44.994;1.796;2024-02-04T15:54:26;5.90;99.90